Time;durP1;ratioP1;P1;durP2;ratioP2;P2;SDS_P1;SDS_P2;PMS_P1;PMS_P2;Temp;Humidity;BMP_temperature;BMP_pressure;BME280_temperature;BME280_humidity;BME280_pressure;Samples;Min_cycle;Max_cycle;Signal;HPM_P1;HPM_P2
2023/06/11 00:00:45;;;;;;;;;;;;;;;22.38;95.81;-18628.06;5031515;28;22107;-79
2023/06/11 00:03:10;;;;;;;;;;;;;;;22.36;97.24;-18627.53;5030750;28;20459;-78
2023/06/11 00:05:35;;;;;;;;;;;;;;;22.44;95.56;-18629.69;5028801;28;19921;-79
2023/06/11 00:08:00;;;;;;;;;;;;;;;22.53;94.03;-18632.28;5029167;28;19929;-78
2023/06/11 00:10:26;;;;;;;;;;;;;;;22.52;92.58;-18631.84;5023737;28;19928;-78
2023/06/11 00:12:51;;;;;;;;;;;;;;;22.67;90.30;-18635.78;5029008;28;20296;-78
2023/06/11 00:15:16;;;;;;;;;;;;;;;22.55;90.36;-18632.53;5029856;28;19925;-79
2023/06/11 00:17:42;;;;;;;;;;;;;;;22.81;87.46;-18639.59;5011137;28;19921;-79
2023/06/11 00:20:11;;;;;;;;;;;;;;;22.73;87.63;-18637.44;5025296;28;19932;-78
2023/06/11 00:22:40;;;;;;;;;;;;;;;22.69;87.95;-18636.34;5028965;28;20380;-79
2023/06/11 00:25:06;;;;;;;;;;;;;;;22.81;86.38;-18639.59;5013943;28;19925;-78
2023/06/11 00:27:32;;;;;;;;;;;;;;;22.72;86.16;-18637.16;5029955;28;19968;-79
2023/06/11 00:29:57;;;;;;;;;;;;;;;22.69;86.41;-18636.47;5031109;28;19925;-79
2023/06/11 00:32:22;;;;;;;;;;;;;;;22.73;85.41;-18637.56;5031597;28;20303;-79
2023/06/11 00:34:48;;;;;;;;;;;;;;;22.68;85.69;-18636.19;5029564;28;19932;-78
2023/06/11 00:37:13;;;;;;;;;;;;;;;22.69;85.20;-18636.34;5029723;28;20044;-79
2023/06/11 00:39:39;;;;;;;;;;;;;;;22.58;86.57;-18633.34;5013056;28;19956;-79
2023/06/11 00:42:04;;;;;;;;;;;;;;;22.46;86.60;-18630.38;5029987;28;20597;-79
2023/06/11 00:44:30;;;;;;;;;;;;;;;22.48;86.29;-18630.91;5011879;28;19929;-79
2023/06/11 00:46:57;;;;;;;;;;;;;;;22.51;85.60;-18631.59;5030401;28;19921;-78
2023/06/11 00:49:22;;;;;;;;;;;;;;;22.58;85.12;-18633.50;5011528;28;19979;-77
2023/06/11 00:51:48;;;;;;;;;;;;;;;22.49;85.42;-18631.03;5028321;28;19929;-78
2023/06/11 00:54:16;;;;;;;;;;;;;;;22.30;87.40;-18626.16;5030710;28;20031;-79
2023/06/11 00:56:45;;;;;;;;;;;;;;;22.38;86.81;-18628.06;5028163;28;19971;-79
2023/06/11 00:59:11;;;;;;;;;;;;;;;22.29;87.27;-18625.88;5029699;28;19932;-79
2023/06/11 01:01:48;;;;;;;;;;;;;;;22.28;86.86;-18625.63;5028004;28;20348;-79
2023/06/11 01:04:17;;;;;;;;;;;;;;;22.27;87.58;-18625.22;5024995;28;19921;-78
2023/06/11 01:06:46;;;;;;;;;;;;;;;22.27;87.36;-18625.22;5027943;28;19927;-79
2023/06/11 01:09:12;;;;;;;;;;;;;;;22.25;88.95;-18624.66;5025505;28;19929;-78
2023/06/11 01:11:38;;;;;;;;;;;;;;;22.15;89.78;-18621.94;5026633;28;19921;-78
2023/06/11 01:14:05;;;;;;;;;;;;;;;22.00;90.54;-18618.13;5028606;28;19921;-78
2023/06/11 01:16:42;;;;;;;;;;;;;;;22.03;90.57;-18618.81;5029328;28;20004;-79
2023/06/11 01:19:29;;;;;;;;;;;;;;;21.94;92.21;-18616.38;5010676;28;19921;-79
2023/06/11 01:21:59;;;;;;;;;;;;;;;21.99;91.92;-18617.72;5029517;28;19991;-79
2023/06/11 01:24:33;;;;;;;;;;;;;;;21.89;93.70;-18615.00;5030367;28;19921;-79
2023/06/11 01:27:06;;;;;;;;;;;;;;;21.97;93.42;-18617.19;5030743;28;19921;-78
2023/06/11 01:29:35;;;;;;;;;;;;;;;21.95;93.91;-18616.66;5027311;28;20010;-78
2023/06/11 01:32:01;;;;;;;;;;;;;;;21.90;94.80;-18615.28;5015686;28;19952;-79
2023/06/11 01:34:26;;;;;;;;;;;;;;;21.81;95.96;-18613.13;5015300;28;19960;-78
2023/06/11 01:36:52;;;;;;;;;;;;;;;21.72;97.55;-18610.53;5013503;28;19925;-79
2023/06/11 01:39:17;;;;;;;;;;;;;;;21.47;99.89;-18603.88;5032220;28;19921;-79
2023/06/11 01:41:42;;;;;;;;;;;;;;;21.44;100.00;-18603.19;5030228;28;19952;-78
2023/06/11 01:44:08;;;;;;;;;;;;;;;21.31;100.00;-18599.78;5032103;28;19927;-79
2023/06/11 01:46:33;;;;;;;;;;;;;;;21.27;100.00;-18598.69;5014317;28;19928;-78
2023/06/11 01:48:58;;;;;;;;;;;;;;;21.27;100.00;-18598.69;5015248;28;20376;-79
2023/06/11 01:51:23;;;;;;;;;;;;;;;21.19;100.00;-18596.53;5029976;28;19932;-79
2023/06/11 01:53:49;;;;;;;;;;;;;;;21.17;100.00;-18596.13;5032082;28;19921;-78
2023/06/11 01:56:14;;;;;;;;;;;;;;;21.14;100.00;-18595.16;5014383;28;19971;-78
2023/06/11 01:58:40;;;;;;;;;;;;;;;21.15;100.00;-18595.44;5028520;28;19929;-78
2023/06/11 02:01:08;;;;;;;;;;;;;;;21.45;100.00;-18603.47;5030505;28;19925;-79
2023/06/11 02:03:33;;;;;;;;;;;;;;;21.41;100.00;-18602.38;5028030;28;19945;-78
2023/06/11 02:05:58;;;;;;;;;;;;;;;21.36;100.00;-18601.00;5012100;28;19953;-78
2023/06/11 02:08:23;;;;;;;;;;;;;;;21.27;100.00;-18598.69;5029711;28;19921;-78
2023/06/11 02:10:49;;;;;;;;;;;;;;;21.33;99.73;-18600.19;5028678;28;19931;-79
2023/06/11 02:13:14;;;;;;;;;;;;;;;21.25;100.00;-18598.16;5030041;28;19928;-79
2023/06/11 02:15:39;;;;;;;;;;;;;;;21.21;100.00;-18597.06;5024798;28;20016;-79
2023/06/11 02:18:05;;;;;;;;;;;;;;;21.10;100.00;-18594.09;5028341;28;19921;-78
2023/06/11 02:20:30;;;;;;;;;;;;;;;21.04;100.00;-18592.59;5025816;28;19972;-79
2023/06/11 02:22:56;;;;;;;;;;;;;;;21.11;100.00;-18594.47;5029877;28;19983;-79
2023/06/11 02:25:21;;;;;;;;;;;;;;;21.07;100.00;-18593.41;5028593;28;19996;-78
2023/06/11 02:27:49;;;;;;;;;;;;;;;21.12;100.00;-18594.63;5028492;28;19929;-79
2023/06/11 02:30:15;;;;;;;;;;;;;;;21.06;100.00;-18593.00;5030791;28;19921;-79
2023/06/11 02:32:40;;;;;;;;;;;;;;;21.19;100.00;-18596.66;5011328;28;19988;-79
2023/06/11 02:35:06;;;;;;;;;;;;;;;21.08;100.00;-18593.53;5030448;28;20300;-79
2023/06/11 02:37:31;;;;;;;;;;;;;;;21.05;100.00;-18592.72;5030021;28;19921;-79
2023/06/11 02:39:56;;;;;;;;;;;;;;;21.04;100.00;-18592.44;5026240;28;20008;-79
2023/06/11 02:42:22;;;;;;;;;;;;;;;20.96;100.00;-18590.53;5014083;28;19987;-78
2023/06/11 02:44:47;;;;;;;;;;;;;;;21.00;100.00;-18591.50;5032461;28;20031;-78
2023/06/11 02:47:12;;;;;;;;;;;;;;;21.02;100.00;-18591.91;5032359;28;19925;-79
2023/06/11 02:49:37;;;;;;;;;;;;;;;20.91;100.00;-18589.03;5030959;28;20004;-78
2023/06/11 02:52:03;;;;;;;;;;;;;;;20.81;100.00;-18586.47;5025779;28;19924;-79
2023/06/11 02:54:28;;;;;;;;;;;;;;;20.81;100.00;-18586.31;5025029;28;20028;-79
2023/06/11 02:56:53;;;;;;;;;;;;;;;20.82;100.00;-18586.59;5032344;28;19925;-79
2023/06/11 02:59:18;;;;;;;;;;;;;;;20.71;100.00;-18583.88;5026807;28;19925;-79
2023/06/11 03:01:44;;;;;;;;;;;;;;;20.77;100.00;-18585.38;5006855;28;19991;-79
2023/06/11 03:04:10;;;;;;;;;;;;;;;20.86;100.00;-18587.69;5032547;28;20463;-79
2023/06/11 03:06:35;;;;;;;;;;;;;;;20.87;100.00;-18588.09;5032108;28;19922;-79
2023/06/11 03:09:00;;;;;;;;;;;;;;;20.79;100.00;-18585.91;5024723;28;20051;-78
2023/06/11 03:11:25;;;;;;;;;;;;;;;20.79;100.00;-18585.91;5028936;28;19917;-78
2023/06/11 03:13:51;;;;;;;;;;;;;;;20.79;100.00;-18585.91;5031595;28;20291;-78
2023/06/11 03:16:16;;;;;;;;;;;;;;;20.92;100.00;-18589.31;5008825;28;19923;-78
2023/06/11 03:18:42;;;;;;;;;;;;;;;20.75;100.00;-18584.69;5029590;28;19917;-79
2023/06/11 03:21:07;;;;;;;;;;;;;;;20.79;100.00;-18585.91;5032248;28;19917;-79
2023/06/11 03:23:33;;;;;;;;;;;;;;;20.66;100.00;-18582.38;5034073;28;19929;-78
2023/06/11 03:25:58;;;;;;;;;;;;;;;20.55;100.00;-18579.53;5034595;28;19925;-78
2023/06/11 03:28:23;;;;;;;;;;;;;;;20.55;100.00;-18579.38;5035879;28;19917;-79
2023/06/11 03:30:48;;;;;;;;;;;;;;;20.47;100.00;-18577.34;5035372;28;19970;-79
2023/06/11 03:33:14;;;;;;;;;;;;;;;20.56;100.00;-18579.78;5034119;28;19918;-79
2023/06/11 03:35:39;;;;;;;;;;;;;;;20.50;100.00;-18578.28;5035912;28;19921;-79
2023/06/11 03:38:04;;;;;;;;;;;;;;;20.38;100.00;-18575.03;5033125;28;19923;-78
2023/06/11 03:40:29;;;;;;;;;;;;;;;20.35;100.00;-18574.22;5034483;28;19921;-79
2023/06/11 03:42:55;;;;;;;;;;;;;;;20.33;100.00;-18573.66;5029683;28;20391;-78
2023/06/11 03:45:20;;;;;;;;;;;;;;;20.34;100.00;-18573.94;5015112;28;19917;-79
2023/06/11 03:47:45;;;;;;;;;;;;;;;20.35;100.00;-18574.22;5030329;28;20535;-78
2023/06/11 03:50:12;;;;;;;;;;;;;;;20.36;100.00;-18574.47;5034819;28;19917;-78
2023/06/11 03:52:37;;;;;;;;;;;;;;;20.32;100.00;-18573.41;5032250;28;19944;-78
2023/06/11 03:55:02;;;;;;;;;;;;;;;20.36;100.00;-18574.34;5035289;28;19917;-78
2023/06/11 03:57:27;;;;;;;;;;;;;;;20.31;100.00;-18573.00;5035200;28;19921;-78
2023/06/11 03:59:53;;;;;;;;;;;;;;;20.42;100.00;-18576.13;5034725;28;19932;-78
2023/06/11 04:02:18;;;;;;;;;;;;;;;20.45;100.00;-18576.94;5061790;23;19924;-80
2023/06/11 04:04:43;;;;;;;;;;;;;;;20.53;100.00;-18578.84;5060167;28;19925;-81
2023/06/11 04:07:08;;;;;;;;;;;;;;;20.55;100.00;-18579.38;5072134;28;19920;-80
2023/06/11 04:09:34;;;;;;;;;;;;;;;20.68;100.00;-18582.94;5089128;28;19920;-80
2023/06/11 04:11:59;;;;;;;;;;;;;;;20.44;100.00;-18576.66;5071055;28;19966;-81
2023/06/11 04:14:24;;;;;;;;;;;;;;;20.44;100.00;-18576.53;5051988;28;19920;-80
2023/06/11 04:16:50;;;;;;;;;;;;;;;20.49;100.00;-18578.03;5050950;28;20855;-80
2023/06/11 04:19:15;;;;;;;;;;;;;;;20.57;100.00;-18580.06;5052186;28;19948;-80
2023/06/11 04:21:41;;;;;;;;;;;;;;;20.56;100.00;-18579.66;5051449;28;19916;-80
2023/06/11 04:24:06;;;;;;;;;;;;;;;20.66;100.00;-18582.53;5053979;28;20402;-80
2023/06/11 04:26:31;;;;;;;;;;;;;;;20.76;100.00;-18584.97;5050959;28;19917;-81
2023/06/11 04:28:57;;;;;;;;;;;;;;;20.61;100.00;-18581.03;5046374;28;20410;-80
2023/06/11 04:31:26;;;;;;;;;;;;;;;20.55;100.00;-18579.53;5052239;28;19924;-81
2023/06/11 04:33:52;;;;;;;;;;;;;;;20.62;100.00;-18581.28;5051650;28;19962;-80
2023/06/11 04:36:18;;;;;;;;;;;;;;;20.80;100.00;-18586.19;5050733;28;19942;-80
2023/06/11 04:38:44;;;;;;;;;;;;;;;20.81;100.00;-18586.31;5051294;28;19916;-80
2023/06/11 04:41:11;;;;;;;;;;;;;;;20.89;100.00;-18588.50;5052183;28;19924;-80
2023/06/11 04:43:36;;;;;;;;;;;;;;;21.00;100.00;-18591.50;5052675;28;19924;-82
2023/06/11 04:46:03;;;;;;;;;;;;;;;21.00;100.00;-18591.34;5052177;28;19925;-80
2023/06/11 04:48:31;;;;;;;;;;;;;;;21.04;100.00;-18592.44;5052129;28;19917;-80
2023/06/11 04:50:59;;;;;;;;;;;;;;;21.15;100.00;-18595.44;5051604;28;20403;-81
2023/06/11 04:53:27;;;;;;;;;;;;;;;21.25;100.00;-18598.16;5052636;28;19924;-81
2023/06/11 04:55:57;;;;;;;;;;;;;;;21.34;100.00;-18600.59;5051326;28;19917;-80
2023/06/11 04:58:23;;;;;;;;;;;;;;;21.55;100.00;-18606.03;5051782;28;19968;-80
2023/06/11 05:00:48;;;;;;;;;;;;;;;21.80;100.00;-18612.84;5051767;28;19916;-80
2023/06/11 05:03:17;;;;;;;;;;;;;;;21.80;99.84;-18612.69;5051811;28;19943;-80
2023/06/11 05:05:49;;;;;;;;;;;;;;;21.80;100.00;-18612.69;5050534;28;19935;-81
2023/06/11 05:08:15;;;;;;;;;;;;;;;22.00;100.00;-18618.13;5051402;28;20011;-80
2023/06/11 05:10:41;;;;;;;;;;;;;;;21.96;100.00;-18616.91;5051059;28;19927;-80
2023/06/11 05:13:06;;;;;;;;;;;;;;;22.13;99.04;-18621.41;5050901;28;19916;-81
2023/06/11 05:15:32;;;;;;;;;;;;;;;22.12;100.00;-18621.25;5050413;28;20398;-81
2023/06/11 05:17:57;;;;;;;;;;;;;;;22.23;98.82;-18624.25;5049785;28;20734;-79
2023/06/11 05:20:25;;;;;;;;;;;;;;;22.30;98.43;-18626.16;5050097;28;19956;-80
2023/06/11 05:22:53;;;;;;;;;;;;;;;22.46;96.86;-18630.38;5050559;28;19916;-80
2023/06/11 05:25:19;;;;;;;;;;;;;;;22.41;97.20;-18628.88;5050586;28;20298;-80
2023/06/11 05:27:45;;;;;;;;;;;;;;;22.52;96.58;-18632.00;5049698;28;19923;-80
2023/06/11 05:30:10;;;;;;;;;;;;;;;22.64;96.79;-18634.97;5049791;28;19917;-80
2023/06/11 05:32:36;;;;;;;;;;;;;;;22.76;95.22;-18638.25;5048740;28;20015;-79
2023/06/11 05:35:03;;;;;;;;;;;;;;;22.83;91.65;-18640.13;5049643;28;19932;-81
2023/06/11 05:37:29;;;;;;;;;;;;;;;22.96;91.62;-18643.53;5038666;28;19918;-80
2023/06/11 05:39:54;;;;;;;;;;;;;;;23.02;92.08;-18645.16;5042570;28;19927;-82
2023/06/11 05:42:19;;;;;;;;;;;;;;;22.94;93.39;-18643.00;5047625;28;19938;-81
2023/06/11 05:44:45;;;;;;;;;;;;;;;22.82;95.00;-18639.72;5050490;28;19975;-81
2023/06/11 05:47:10;;;;;;;;;;;;;;;23.00;94.12;-18644.50;5051359;28;19924;-81
2023/06/11 05:49:36;;;;;;;;;;;;;;;23.17;90.76;-18649.25;5053213;28;19917;-81
2023/06/11 05:52:01;;;;;;;;;;;;;;;23.27;92.38;-18651.69;5048812;28;20003;-82
2023/06/11 05:54:26;;;;;;;;;;;;;;;23.41;89.54;-18655.47;5050918;28;19932;-80
2023/06/11 05:56:51;;;;;;;;;;;;;;;23.40;89.47;-18655.34;5047617;28;19920;-80
2023/06/11 05:59:16;;;;;;;;;;;;;;;23.40;90.60;-18655.34;5048846;28;19964;-81
2023/06/11 06:01:44;;;;;;;;;;;;;;;23.53;88.96;-18658.72;5049517;28;19917;-81
2023/06/11 06:04:10;;;;;;;;;;;;;;;23.72;88.95;-18663.63;5050375;28;19925;-81
2023/06/11 06:06:35;;;;;;;;;;;;;;;23.86;86.85;-18667.41;5050772;28;20322;-81
2023/06/11 06:09:00;;;;;;;;;;;;;;;24.08;85.15;-18673.25;5049642;28;20018;-81
2023/06/11 06:11:26;;;;;;;;;;;;;;;24.04;86.07;-18672.28;5049552;28;19924;-81
2023/06/11 06:13:51;;;;;;;;;;;;;;;24.01;85.78;-18671.34;5049880;28;20062;-81
2023/06/11 06:16:17;;;;;;;;;;;;;;;24.33;83.66;-18680.00;5051039;28;20302;-80
2023/06/11 06:18:44;;;;;;;;;;;;;;;24.45;81.62;-18683.13;5039645;28;19957;-81
2023/06/11 06:21:09;;;;;;;;;;;;;;;24.42;82.85;-18682.31;5049593;28;20011;-80
2023/06/11 06:23:34;;;;;;;;;;;;;;;24.38;83.32;-18681.09;5049702;28;19963;-82
2023/06/11 06:26:00;;;;;;;;;;;;;;;24.43;83.26;-18682.47;5047710;28;19935;-81
2023/06/11 06:28:25;;;;;;;;;;;;;;;24.55;82.52;-18685.72;5049134;28;19967;-80
2023/06/11 06:30:50;;;;;;;;;;;;;;;24.61;81.70;-18687.34;5049640;28;19923;-81
2023/06/11 06:33:16;;;;;;;;;;;;;;;24.69;81.62;-18689.38;5048035;28;19920;-82
2023/06/11 06:35:41;;;;;;;;;;;;;;;24.82;80.40;-18692.88;5049098;28;19916;-81
2023/06/11 06:38:06;;;;;;;;;;;;;;;24.87;80.34;-18694.25;5044502;28;19920;-80
2023/06/11 06:40:32;;;;;;;;;;;;;;;24.94;78.04;-18696.13;5048770;28;20529;-80
2023/06/11 06:42:57;;;;;;;;;;;;;;;24.94;79.75;-18696.00;5047621;28;19927;-80
2023/06/11 06:45:22;;;;;;;;;;;;;;;25.05;78.76;-18698.84;5047139;28;19928;-80
2023/06/11 06:47:47;;;;;;;;;;;;;;;25.16;76.79;-18701.81;5043695;28;19920;-80
2023/06/11 06:50:13;;;;;;;;;;;;;;;25.25;76.05;-18704.25;5047010;28;19917;-80
2023/06/11 06:52:38;;;;;;;;;;;;;;;25.36;75.56;-18707.09;5047813;28;19920;-84
2023/06/11 06:55:03;;;;;;;;;;;;;;;25.47;74.54;-18709.94;5044998;28;19928;-82
2023/06/11 06:57:30;;;;;;;;;;;;;;;25.59;74.40;-18713.19;5047654;28;19920;-81
2023/06/11 06:59:55;;;;;;;;;;;;;;;25.56;74.05;-18712.53;5045668;28;19981;-81
2023/06/11 07:02:20;;;;;;;;;;;;;;;25.53;74.77;-18711.56;5046885;28;19927;-80
2023/06/11 07:04:46;;;;;;;;;;;;;;;25.69;71.89;-18715.91;5047430;28;19925;-81
2023/06/11 07:07:11;;;;;;;;;;;;;;;25.75;70.89;-18717.53;5048523;28;19917;-81
2023/06/11 07:09:36;;;;;;;;;;;;;;;25.85;71.12;-18720.22;5047293;28;19920;-81
2023/06/11 07:12:01;;;;;;;;;;;;;;;25.97;70.15;-18723.22;5048077;28;20003;-81
2023/06/11 07:14:27;;;;;;;;;;;;;;;26.03;68.65;-18724.84;5048751;28;19920;-81
2023/06/11 07:16:52;;;;;;;;;;;;;;;26.02;69.76;-18724.56;5043958;28;20003;-80
2023/06/11 07:19:17;;;;;;;;;;;;;;;26.19;71.16;-18729.16;5046549;28;20386;-81
2023/06/11 07:21:42;;;;;;;;;;;;;;;26.31;66.48;-18732.41;5041192;28;20526;-81
2023/06/11 07:24:08;;;;;;;;;;;;;;;26.37;67.60;-18733.75;5048295;28;19925;-81
2023/06/11 07:26:33;;;;;;;;;;;;;;;26.55;66.84;-18738.63;5047934;28;19928;-80
2023/06/11 07:28:59;;;;;;;;;;;;;;;26.67;64.97;-18741.72;5047453;28;19924;-82
2023/06/11 07:31:25;;;;;;;;;;;;;;;26.74;63.35;-18743.63;5049749;28;19916;-81
2023/06/11 07:33:50;;;;;;;;;;;;;;;26.77;63.10;-18744.56;5054131;28;19921;-81
2023/06/11 07:36:16;;;;;;;;;;;;;;;26.92;61.24;-18748.34;5050583;28;19916;-81
2023/06/11 07:38:43;;;;;;;;;;;;;;;26.95;57.06;-18749.16;5050530;28;20399;-81
2023/06/11 07:41:09;;;;;;;;;;;;;;;26.93;57.40;-18748.75;5048572;28;20453;-81
2023/06/11 07:43:34;;;;;;;;;;;;;;;27.03;58.65;-18751.31;5047309;28;19920;-81
2023/06/11 07:45:59;;;;;;;;;;;;;;;27.11;59.17;-18753.47;5046522;28;19932;-80
2023/06/11 07:48:24;;;;;;;;;;;;;;;27.29;58.68;-18758.22;5043315;28;19928;-81
2023/06/11 07:50:52;;;;;;;;;;;;;;;27.46;56.49;-18762.66;5047419;28;19917;-81
2023/06/11 07:53:18;;;;;;;;;;;;;;;27.66;57.48;-18768.06;5047611;28;19932;-81
2023/06/11 07:55:44;;;;;;;;;;;;;;;27.67;54.90;-18768.19;5043037;28;19924;-82
2023/06/11 07:58:09;;;;;;;;;;;;;;;27.73;53.70;-18769.81;5047240;28;19921;-81
2023/06/11 08:00:34;;;;;;;;;;;;;;;27.76;53.87;-18770.50;5042238;28;19940;-81
2023/06/11 08:03:00;;;;;;;;;;;;;;;27.70;55.14;-18768.88;5050586;28;20460;-80
2023/06/11 08:05:26;;;;;;;;;;;;;;;27.90;56.00;-18774.28;5049178;28;20007;-81
2023/06/11 08:07:51;;;;;;;;;;;;;;;27.98;53.28;-18776.31;5050557;28;19928;-81
2023/06/11 08:10:16;;;;;;;;;;;;;;;27.97;50.70;-18776.03;5049406;28;20284;-81
2023/06/11 08:12:42;;;;;;;;;;;;;;;27.90;50.91;-18774.41;5051214;28;19986;-81
2023/06/11 08:15:08;;;;;;;;;;;;;;;27.99;49.72;-18776.56;5050193;28;19925;-81
2023/06/11 08:17:33;;;;;;;;;;;;;;;28.16;49.82;-18781.03;5051123;28;20404;-80
2023/06/11 08:20:00;;;;;;;;;;;;;;;28.11;50.36;-18779.94;5049608;28;19959;-79
2023/06/11 08:22:25;;;;;;;;;;;;;;;28.42;48.04;-18788.03;5051265;28;19939;-79
2023/06/11 08:24:50;;;;;;;;;;;;;;;28.30;47.80;-18784.81;5048954;28;19992;-79
2023/06/11 08:27:15;;;;;;;;;;;;;;;28.50;48.66;-18790.19;5050783;28;19924;-79
2023/06/11 08:29:41;;;;;;;;;;;;;;;28.55;47.83;-18791.41;5053951;28;19967;-79
2023/06/11 08:32:06;;;;;;;;;;;;;;;28.55;46.05;-18791.41;5049353;28;20383;-79
2023/06/11 08:34:32;;;;;;;;;;;;;;;28.60;47.04;-18792.63;5049311;28;19928;-79
2023/06/11 08:36:57;;;;;;;;;;;;;;;28.59;43.88;-18792.34;5049466;28;19932;-79
2023/06/11 08:39:22;;;;;;;;;;;;;;;28.69;43.59;-18795.06;5049380;28;19921;-79
2023/06/11 08:41:48;;;;;;;;;;;;;;;28.83;43.15;-18798.69;5048787;28;19924;-79
2023/06/11 08:44:13;;;;;;;;;;;;;;;28.79;43.74;-18797.88;5051089;28;19985;-79
2023/06/11 08:46:38;;;;;;;;;;;;;;;28.89;44.01;-18800.31;5050265;28;19960;-79
2023/06/11 08:49:05;;;;;;;;;;;;;;;28.90;42.25;-18800.72;5048535;28;19921;-79
2023/06/11 08:51:35;;;;;;;;;;;;;;;28.98;41.56;-18802.88;5050994;28;19924;-79
2023/06/11 08:54:00;;;;;;;;;;;;;;;29.08;40.98;-18805.44;5050174;28;19931;-79
2023/06/11 08:56:26;;;;;;;;;;;;;;;29.11;41.75;-18806.25;5049645;28;19916;-79
2023/06/11 08:58:52;;;;;;;;;;;;;;;29.20;41.77;-18808.53;5045548;28;19924;-79
2023/06/11 09:01:20;;;;;;;;;;;;;;;29.28;41.49;-18810.69;5050662;28;19952;-79
2023/06/11 09:03:46;;;;;;;;;;;;;;;29.38;40.89;-18813.38;5049897;28;19921;-79
2023/06/11 09:06:11;;;;;;;;;;;;;;;29.50;40.61;-18816.34;5049283;28;19927;-79
2023/06/11 09:08:36;;;;;;;;;;;;;;;29.57;41.81;-18818.22;5050057;28;19967;-79
2023/06/11 09:11:04;;;;;;;;;;;;;;;29.58;41.06;-18818.50;5050001;28;19928;-79
2023/06/11 09:13:29;;;;;;;;;;;;;;;29.76;38.98;-18823.22;5050094;28;19921;-79
2023/06/11 09:15:58;;;;;;;;;;;;;;;29.71;39.79;-18822.00;5045164;28;20380;-79
2023/06/11 09:18:24;;;;;;;;;;;;;;;29.72;40.05;-18822.13;5050210;28;19928;-79
2023/06/11 09:20:50;;;;;;;;;;;;;;;29.74;40.80;-18822.66;5063021;28;19970;-79
2023/06/11 09:23:25;;;;;;;;;;;;;;;29.89;39.45;-18826.72;5043826;28;19947;-79
2023/06/11 09:25:51;;;;;;;;;;;;;;;29.94;39.02;-18828.06;5044981;28;19929;-79
2023/06/11 09:28:16;;;;;;;;;;;;;;;29.96;38.28;-18828.47;5045977;28;20304;-79
2023/06/11 09:30:41;;;;;;;;;;;;;;;29.95;36.76;-18828.31;5048100;28;19917;-79
2023/06/11 09:33:14;;;;;;;;;;;;;;;29.97;38.28;-18828.88;5049099;28;19921;-79
2023/06/11 09:35:42;;;;;;;;;;;;;;;30.38;38.78;-18839.63;5045367;28;19921;-79
2023/06/11 09:38:13;;;;;;;;;;;;;;;30.56;37.48;-18844.34;5042108;28;19921;-79
2023/06/11 09:40:39;;;;;;;;;;;;;;;30.51;36.72;-18843.00;5047714;28;19924;-79
2023/06/11 09:43:05;;;;;;;;;;;;;;;30.58;36.86;-18844.88;5043850;28;19917;-79
2023/06/11 09:45:31;;;;;;;;;;;;;;;30.33;36.75;-18838.28;5049900;28;19934;-79
2023/06/11 09:47:57;;;;;;;;;;;;;;;30.31;37.59;-18837.88;5043616;28;19921;-79
2023/06/11 09:50:22;;;;;;;;;;;;;;;30.38;37.24;-18839.63;5060295;28;20024;-79
2023/06/11 09:52:48;;;;;;;;;;;;;;;30.66;37.26;-18847.03;5048356;28;19944;-79
2023/06/11 09:55:13;;;;;;;;;;;;;;;30.74;35.55;-18849.03;5049804;28;19939;-79
2023/06/11 09:57:40;;;;;;;;;;;;;;;31.02;35.60;-18856.44;5050419;28;19917;-79
2023/06/11 10:00:11;;;;;;;;;;;;;;;31.05;35.72;-18857.25;5047463;28;20517;-79
2023/06/11 10:02:38;;;;;;;;;;;;;;;31.12;34.90;-18859.00;5066957;23;19928;-76
2023/06/11 10:05:05;;;;;;;;;;;;;;;30.88;34.57;-18852.81;5024184;28;19929;-78
2023/06/11 10:07:31;;;;;;;;;;;;;;;30.75;35.60;-18849.31;5026966;28;20256;-79
2023/06/11 10:09:57;;;;;;;;;;;;;;;30.94;35.94;-18854.28;5017016;28;19924;-78
2023/06/11 10:12:23;;;;;;;;;;;;;;;31.13;36.16;-18859.41;5020615;28;20008;-79
2023/06/11 10:14:52;;;;;;;;;;;;;;;31.18;34.63;-18860.75;5023304;28;19922;-80
2023/06/11 10:17:17;;;;;;;;;;;;;;;31.35;34.77;-18865.19;5022711;28;20547;-79
2023/06/11 10:19:47;;;;;;;;;;;;;;;31.35;34.82;-18865.03;5022497;28;19928;-80
2023/06/11 10:22:12;;;;;;;;;;;;;;;31.38;35.25;-18865.84;5021190;28;19922;-80
2023/06/11 10:24:37;;;;;;;;;;;;;;;31.53;35.30;-18869.75;5029931;28;19940;-80
2023/06/11 10:27:04;;;;;;;;;;;;;;;31.67;34.75;-18873.63;5023504;28;19929;-80
2023/06/11 10:29:35;;;;;;;;;;;;;;;31.04;34.93;-18856.97;5017434;28;20452;-79
2023/06/11 10:32:00;;;;;;;;;;;;;;;31.11;35.56;-18858.84;5021721;28;20043;-81
2023/06/11 10:34:25;;;;;;;;;;;;;;;31.15;36.40;-18859.94;5020586;28;19968;-80
2023/06/11 10:36:51;;;;;;;;;;;;;;;31.52;35.72;-18869.59;5017208;28;19972;-80
2023/06/11 10:39:23;;;;;;;;;;;;;;;31.43;34.26;-18867.19;5011190;28;19928;-79
2023/06/11 10:41:58;;;;;;;;;;;;;;;31.51;34.60;-18869.22;5023146;28;20277;-79
2023/06/11 10:44:25;;;;;;;;;;;;;;;31.40;34.32;-18866.38;5016565;28;20417;-80
2023/06/11 10:46:53;;;;;;;;;;;;;;;31.51;34.24;-18869.34;5016650;28;19925;-80
2023/06/11 10:49:28;;;;;;;;;;;;;;;31.43;34.89;-18867.31;5013898;28;19917;-79
2023/06/11 10:51:53;;;;;;;;;;;;;;;31.51;34.12;-18869.34;5011840;28;19922;-78
2023/06/11 10:54:32;;;;;;;;;;;;;;;31.80;33.54;-18876.88;5013685;28;19925;-79
2023/06/11 10:56:59;;;;;;;;;;;;;;;31.55;33.19;-18870.41;5015349;28;19952;-80
2023/06/11 10:59:24;;;;;;;;;;;;;;;31.69;33.94;-18874.03;5012493;28;20364;-78
2023/06/11 11:01:53;;;;;;;;;;;;;;;31.76;34.72;-18875.91;5018043;28;19967;-80
2023/06/11 11:04:18;;;;;;;;;;;;;;;32.08;34.63;-18884.38;5015663;28;19926;-80
2023/06/11 11:06:44;;;;;;;;;;;;;;;32.00;34.33;-18882.09;5017919;28;19921;-80
2023/06/11 11:09:09;;;;;;;;;;;;;;;31.93;34.67;-18880.34;5016812;28;19945;-79
2023/06/11 11:11:34;;;;;;;;;;;;;;;31.90;34.15;-18879.69;5014448;28;20336;-80
2023/06/11 11:14:00;;;;;;;;;;;;;;;31.87;33.50;-18878.75;5014407;28;19921;-80
2023/06/11 11:16:26;;;;;;;;;;;;;;;31.84;35.31;-18878.06;5035998;28;19925;-80
2023/06/11 11:18:51;;;;;;;;;;;;;;;32.00;34.51;-18882.09;5030171;28;19932;-79
2023/06/11 11:21:17;;;;;;;;;;;;;;;32.26;34.16;-18889.09;5034801;28;20015;-79
2023/06/11 11:23:45;;;;;;;;;;;;;;;32.21;33.90;-18887.59;5034520;28;19973;-80
2023/06/11 11:26:10;;;;;;;;;;;;;;;32.16;33.67;-18886.25;5011548;28;19921;-81
2023/06/11 11:28:36;;;;;;;;;;;;;;;32.33;34.34;-18890.97;5015596;28;19918;-80
2023/06/11 11:31:02;;;;;;;;;;;;;;;32.54;33.57;-18896.47;5015591;28;19921;-82
2023/06/11 11:33:28;;;;;;;;;;;;;;;32.40;33.78;-18892.69;5008759;28;20011;-81
2023/06/11 11:35:56;;;;;;;;;;;;;;;32.36;33.84;-18891.75;5012039;28;19922;-79
2023/06/11 11:38:22;;;;;;;;;;;;;;;32.32;32.81;-18890.56;5021471;28;19928;-79
2023/06/11 11:40:57;;;;;;;;;;;;;;;32.28;32.98;-18889.47;5022325;28;19917;-79
2023/06/11 11:43:22;;;;;;;;;;;;;;;32.44;33.05;-18893.63;5035395;28;19925;-79
2023/06/11 11:45:48;;;;;;;;;;;;;;;32.68;32.68;-18899.94;5034170;28;19922;-81
2023/06/11 11:48:13;;;;;;;;;;;;;;;32.65;32.18;-18899.16;5036038;28;19956;-79
2023/06/11 11:50:40;;;;;;;;;;;;;;;32.69;33.24;-18900.22;5037169;28;19966;-79
2023/06/11 11:53:06;;;;;;;;;;;;;;;32.66;33.57;-18899.41;5041466;28;19918;-79
2023/06/11 11:55:33;;;;;;;;;;;;;;;32.72;32.90;-18901.16;5029164;28;19932;-78
2023/06/11 11:58:06;;;;;;;;;;;;;;;32.49;32.53;-18895.13;5013893;28;19976;-79
2023/06/11 12:00:32;;;;;;;;;;;;;;;32.59;32.22;-18897.66;5012745;28;19972;-79
2023/06/11 12:02:58;;;;;;;;;;;;;;;32.65;32.82;-18899.16;5033991;28;19965;-79
2023/06/11 12:05:29;;;;;;;;;;;;;;;32.88;33.25;-18905.19;5035397;28;19921;-79
2023/06/11 12:07:54;;;;;;;;;;;;;;;33.06;31.37;-18909.88;5040191;28;20024;-78
2023/06/11 12:10:21;;;;;;;;;;;;;;;33.06;32.15;-18909.88;5042719;28;19952;-79
2023/06/11 12:12:46;;;;;;;;;;;;;;;33.13;31.52;-18911.75;5036059;28;20375;-79
2023/06/11 12:15:12;;;;;;;;;;;;;;;32.91;31.97;-18905.97;5017653;28;19918;-78
2023/06/11 12:17:39;;;;;;;;;;;;;;;32.82;31.83;-18903.69;5032396;28;19966;-78
2023/06/11 12:20:05;;;;;;;;;;;;;;;32.82;32.71;-18903.69;5034819;28;20004;-78
2023/06/11 12:22:30;;;;;;;;;;;;;;;32.92;31.49;-18906.38;5036313;28;19964;-79
2023/06/11 12:24:56;;;;;;;;;;;;;;;33.07;31.43;-18910.16;5027787;28;19933;-79
2023/06/11 12:27:22;;;;;;;;;;;;;;;33.18;32.03;-18913.22;5035169;28;19917;-79